createdAt,value
2018-07-28T00:00:36.064Z,14.40
2018-07-28T00:03:04.479Z,14.67
2018-07-28T00:05:32.859Z,15.50
2018-07-28T00:08:01.291Z,14.10
2018-07-28T00:10:29.678Z,13.30
2018-07-28T00:12:58.118Z,14.70
2018-07-28T00:15:26.502Z,13.47
2018-07-28T00:17:54.902Z,11.87
2018-07-28T00:20:23.279Z,13.53
2018-07-28T00:22:51.698Z,15.67
2018-07-28T00:25:20.114Z,13.80
2018-07-28T00:27:48.514Z,15.60
2018-07-28T00:30:16.885Z,14.93
2018-07-28T00:32:45.290Z,14.23
2018-07-28T00:35:13.723Z,12.20
2018-07-28T00:37:42.126Z,15.60
2018-07-28T00:40:10.506Z,15.90
2018-07-28T00:42:39.142Z,15.30
2018-07-28T00:45:08.007Z,16.47
2018-07-28T00:47:36.414Z,16.50
2018-07-28T00:50:06.130Z,17.37
2018-07-28T00:52:34.534Z,17.67
2018-07-28T00:55:02.906Z,17.40
2018-07-28T00:57:31.306Z,14.43
2018-07-28T00:59:59.700Z,14.40
2018-07-28T01:02:28.098Z,17.57
2018-07-28T01:04:56.485Z,15.70
2018-07-28T01:07:24.890Z,17.43
2018-07-28T01:09:53.306Z,14.33
2018-07-28T01:12:21.713Z,17.00
2018-07-28T01:14:50.095Z,16.23
2018-07-28T01:17:18.489Z,15.53
2018-07-28T01:19:46.861Z,17.13
2018-07-28T01:22:15.286Z,16.40
2018-07-28T01:24:43.662Z,16.33
2018-07-28T01:27:12.065Z,14.80
2018-07-28T01:29:40.438Z,16.97
2018-07-28T01:32:08.842Z,19.00
2018-07-28T01:34:37.218Z,18.57
2018-07-28T01:37:05.711Z,16.70
2018-07-28T01:39:34.093Z,14.70
2018-07-28T01:42:02.499Z,18.20
2018-07-28T01:44:30.886Z,15.17
2018-07-28T01:46:59.298Z,16.00
2018-07-28T01:49:27.693Z,16.90
2018-07-28T01:51:56.069Z,17.80
2018-07-28T01:54:24.471Z,16.83
2018-07-28T01:56:52.929Z,17.00
2018-07-28T01:59:21.331Z,13.90
2018-07-28T02:01:49.718Z,14.23
2018-07-28T02:04:18.122Z,16.67
2018-07-28T02:06:46.506Z,13.80
2018-07-28T02:09:14.906Z,15.10
2018-07-28T02:11:43.338Z,17.23
2018-07-28T02:14:11.746Z,16.07
2018-07-28T02:16:40.117Z,16.20
2018-07-28T02:19:08.527Z,15.80
2018-07-28T02:21:36.926Z,16.10
2018-07-28T02:24:05.325Z,16.23
2018-07-28T02:26:33.739Z,16.20
2018-07-28T02:29:02.151Z,15.40
2018-07-28T02:31:30.530Z,16.07
2018-07-28T02:33:58.943Z,17.03
2018-07-28T02:36:27.325Z,17.00
2018-07-28T02:38:55.726Z,17.60
2018-07-28T02:41:24.102Z,16.47
2018-07-28T02:43:52.530Z,17.27
2018-07-28T02:46:20.905Z,16.37
2018-07-28T02:48:49.309Z,17.70
2018-07-28T02:51:17.686Z,17.37
2018-07-28T02:53:46.139Z,15.20
2018-07-28T02:56:15.581Z,18.97
2018-07-28T02:58:44.087Z,16.77
2018-07-28T03:01:12.479Z,16.63
2018-07-28T03:03:42.050Z,15.83
2018-07-28T03:06:10.426Z,17.73
2018-07-28T03:08:38.831Z,15.87
2018-07-28T03:11:07.327Z,17.50
2018-07-28T03:13:35.902Z,16.30
2018-07-28T03:16:10.872Z,14.87
2018-07-28T03:18:39.298Z,19.90
2018-07-28T03:21:07.715Z,16.70
2018-07-28T03:23:36.118Z,17.67
2018-07-28T03:26:04.507Z,18.67
2018-07-28T03:28:32.914Z,17.37
2018-07-28T03:31:01.299Z,18.63
2018-07-28T03:33:29.749Z,20.23
2018-07-28T03:35:58.121Z,18.97
2018-07-28T03:38:26.518Z,19.03
2018-07-28T03:40:54.895Z,19.20
2018-07-28T03:43:23.302Z,20.27
2018-07-28T03:45:51.720Z,17.80
2018-07-28T03:48:20.123Z,19.40
2018-07-28T03:50:48.501Z,19.80
2018-07-28T03:53:16.882Z,20.33
2018-07-28T03:55:45.286Z,20.00
2018-07-28T03:58:13.675Z,20.20
2018-07-28T04:00:42.075Z,20.33
2018-07-28T04:03:10.454Z,19.83
2018-07-28T04:05:38.891Z,19.53
2018-07-28T04:08:07.277Z,20.43
2018-07-28T04:10:35.678Z,20.20
2018-07-28T04:13:04.115Z,19.83
2018-07-28T04:15:32.505Z,18.00
2018-07-28T04:18:00.884Z,19.50
2018-07-28T04:20:29.298Z,18.50
2018-07-28T04:22:57.706Z,19.23
2018-07-28T04:25:26.118Z,19.20
2018-07-28T04:27:54.499Z,17.57
2018-07-28T04:30:22.930Z,18.23
2018-07-28T04:32:51.311Z,17.43
2018-07-28T04:35:19.722Z,18.70
2018-07-28T04:37:48.103Z,18.40
2018-07-28T04:40:16.535Z,17.00
2018-07-28T04:42:44.914Z,16.53
2018-07-28T04:45:13.333Z,16.77
2018-07-28T04:47:41.710Z,15.83
2018-07-28T04:50:10.111Z,17.47
2018-07-28T04:52:38.594Z,17.33
2018-07-28T04:55:07.322Z,16.43
2018-07-28T04:57:35.693Z,17.00
2018-07-28T05:00:05.148Z,17.10
2018-07-28T05:02:33.529Z,18.40
2018-07-28T05:05:01.931Z,17.27
2018-07-28T05:07:30.390Z,18.30
2018-07-28T05:09:58.741Z,17.47
2018-07-28T05:12:27.122Z,17.87
2018-07-28T05:14:55.531Z,17.70
2018-07-28T05:17:23.916Z,19.00
2018-07-28T05:19:52.319Z,17.90
2018-07-28T05:22:22.375Z,16.27
2018-07-28T05:24:50.787Z,14.93
2018-07-28T05:27:19.168Z,17.00
2018-07-28T05:29:47.572Z,18.03
2018-07-28T05:32:15.956Z,18.13
2018-07-28T05:34:44.359Z,16.60
2018-07-28T05:37:13.315Z,17.37
2018-07-28T05:39:41.726Z,17.70
2018-07-28T05:42:10.102Z,17.77
2018-07-28T05:44:38.548Z,16.97
2018-07-28T05:47:06.930Z,17.53
2018-07-28T05:49:35.348Z,17.67
2018-07-28T05:52:03.750Z,16.70
2018-07-28T05:54:32.132Z,17.27
2018-07-28T05:57:00.551Z,17.47
2018-07-28T05:59:28.933Z,18.23
2018-07-28T06:01:57.329Z,17.97
2018-07-28T06:04:25.707Z,16.53
2018-07-28T06:06:54.107Z,16.83
2018-07-28T06:09:22.484Z,15.50
2018-07-28T06:11:50.891Z,16.10
2018-07-28T06:14:19.266Z,15.60
2018-07-28T06:16:47.670Z,17.23
2018-07-28T06:19:16.143Z,17.23
2018-07-28T06:21:44.561Z,16.03
2018-07-28T06:24:13.069Z,16.00
2018-07-28T06:26:41.654Z,15.30
2018-07-28T06:29:10.037Z,13.30
2018-07-28T06:31:38.505Z,13.67
2018-07-28T06:34:06.855Z,13.73
2018-07-28T06:36:35.304Z,12.37
2018-07-28T06:39:04.151Z,12.50
2018-07-28T06:41:32.550Z,11.77
2018-07-28T06:44:00.939Z,12.17
2018-07-28T06:46:29.337Z,11.47
2018-07-28T06:48:57.723Z,12.63
2018-07-28T06:51:26.130Z,12.70
2018-07-28T06:53:54.525Z,10.90
2018-07-28T06:56:22.938Z,11.87
2018-07-28T06:58:51.578Z,10.73
2018-07-28T07:01:19.982Z,11.60
2018-07-28T07:03:48.638Z,10.87
2018-07-28T07:06:17.049Z,11.43
2018-07-28T07:08:45.421Z,11.03
2018-07-28T07:11:13.826Z,11.10
2018-07-28T07:13:42.259Z,11.90
2018-07-28T07:16:10.666Z,10.47
2018-07-28T07:18:39.042Z,10.20
2018-07-28T07:21:07.470Z,11.20
2018-07-28T07:23:35.842Z,9.87
2018-07-28T07:26:04.376Z,11.00
2018-07-28T07:28:32.770Z,10.00
2018-07-28T07:31:01.223Z,10.83
2018-07-28T07:33:29.606Z,10.50
2018-07-28T07:35:58.006Z,10.20
2018-07-28T07:38:26.407Z,10.17
2018-07-28T07:40:54.810Z,9.77
2018-07-28T07:43:23.305Z,9.20
2018-07-28T07:45:51.733Z,9.43
2018-07-28T07:48:20.115Z,8.70
2018-07-28T07:50:48.530Z,8.80
2018-07-28T07:53:16.910Z,8.07
2018-07-28T07:55:45.285Z,8.90
2018-07-28T07:58:13.675Z,8.33
2018-07-28T08:00:42.038Z,8.60
2018-07-28T08:03:10.450Z,7.80
2018-07-28T08:05:38.817Z,8.77
2018-07-28T08:08:07.215Z,8.87
2018-07-28T08:10:35.601Z,9.33
2018-07-28T08:13:03.999Z,8.73
2018-07-28T08:15:32.375Z,9.10
2018-07-28T08:18:00.774Z,7.53
2018-07-28T08:20:29.195Z,8.00
2018-07-28T08:22:57.633Z,8.60
2018-07-28T08:25:26.011Z,8.10
2018-07-28T08:27:54.484Z,8.80
2018-07-28T08:30:22.865Z,8.40
2018-07-28T08:32:51.266Z,8.77
2018-07-28T08:35:19.644Z,8.97
2018-07-28T08:37:48.066Z,9.20
2018-07-28T08:40:16.443Z,7.60
2018-07-28T08:42:44.849Z,8.07
2018-07-28T08:45:13.217Z,8.20
2018-07-28T08:47:41.610Z,8.60
2018-07-28T08:50:09.986Z,7.67
2018-07-28T08:52:38.373Z,7.90
2018-07-28T08:55:06.749Z,8.60
2018-07-28T08:57:35.151Z,8.77
2018-07-28T09:00:03.602Z,7.33
2018-07-28T09:02:32.050Z,8.00
2018-07-28T09:05:00.429Z,7.30
2018-07-28T09:07:28.834Z,7.47
2018-07-28T09:09:57.215Z,6.93
2018-07-28T09:12:25.629Z,8.23
2018-07-28T09:14:54.005Z,7.30
2018-07-28T09:17:22.415Z,7.83
2018-07-28T09:19:50.794Z,6.80
2018-07-28T09:22:19.221Z,8.00
2018-07-28T09:24:47.623Z,8.20
2018-07-28T09:27:16.031Z,6.30
2018-07-28T09:29:44.423Z,7.60
2018-07-28T09:32:12.830Z,7.33
2018-07-28T09:34:41.223Z,7.50
2018-07-28T09:37:09.634Z,6.67
2018-07-28T09:39:38.031Z,6.80
2018-07-28T09:42:06.499Z,6.50
2018-07-28T09:44:34.870Z,6.87
2018-07-28T09:47:03.401Z,7.20
2018-07-28T09:49:31.678Z,6.63
2018-07-28T09:52:00.047Z,6.90
2018-07-28T09:54:29.181Z,6.77
2018-07-28T09:56:57.584Z,6.93
2018-07-28T09:59:26.040Z,6.73
2018-07-28T10:01:54.413Z,6.73
2018-07-28T10:04:22.841Z,6.60
2018-07-28T10:06:51.209Z,7.47
2018-07-28T10:09:19.618Z,7.00
2018-07-28T10:11:47.997Z,8.00
2018-07-28T10:14:16.402Z,6.90
2018-07-28T10:16:44.769Z,7.40
2018-07-28T10:19:13.224Z,7.60
2018-07-28T10:21:41.724Z,6.90
2018-07-28T10:24:10.277Z,7.10
2018-07-28T10:26:38.693Z,6.80
2018-07-28T10:29:07.094Z,7.00
2018-07-28T10:31:35.475Z,7.93
2018-07-28T10:34:03.876Z,5.87
2018-07-28T10:36:32.407Z,7.00
2018-07-28T10:39:00.866Z,7.27
2018-07-28T10:41:29.237Z,6.73
2018-07-28T10:43:57.731Z,6.70
2018-07-28T10:46:26.099Z,7.53
2018-07-28T10:48:54.511Z,7.53
2018-07-28T10:51:22.896Z,7.27
2018-07-28T10:53:51.285Z,7.20
2018-07-28T10:56:19.695Z,7.60
2018-07-28T10:58:48.093Z,7.57
2018-07-28T11:01:16.483Z,7.30
2018-07-28T11:03:44.877Z,7.53
2018-07-28T11:06:13.268Z,7.03
2018-07-28T11:08:41.663Z,7.33
2018-07-28T11:11:10.115Z,6.50
2018-07-28T11:13:38.508Z,6.47
2018-07-28T11:16:06.891Z,7.00
2018-07-28T11:18:35.315Z,7.10
2018-07-28T11:21:03.742Z,7.70
2018-07-28T11:23:43.537Z,6.10
2018-07-28T11:26:12.010Z,7.37
2018-07-28T11:28:40.371Z,7.20
2018-07-28T11:31:19.309Z,6.50
2018-07-28T11:33:59.075Z,6.17
2018-07-28T11:36:38.852Z,6.83
2018-07-28T11:39:18.646Z,7.63
2018-07-28T11:41:58.247Z,6.83
2018-07-28T11:45:30.983Z,6.67
2018-07-28T11:47:59.356Z,6.97
2018-07-28T11:50:27.798Z,7.53
2018-07-28T11:52:56.167Z,6.47
2018-07-28T11:55:24.563Z,6.93
2018-07-28T11:57:52.931Z,7.00
2018-07-28T12:00:21.323Z,6.80
2018-07-28T12:02:49.693Z,8.40
2018-07-28T12:05:18.091Z,6.53
2018-07-28T12:07:46.463Z,5.80
2018-07-28T12:10:14.932Z,6.73
2018-07-28T12:12:43.328Z,6.97
2018-07-28T12:15:11.738Z,6.47
2018-07-28T12:17:40.127Z,6.13
2018-07-28T12:20:08.525Z,6.50
2018-07-28T12:22:36.913Z,7.00
2018-07-28T12:25:05.493Z,7.50
2018-07-28T12:27:33.878Z,6.70
2018-07-28T12:30:02.274Z,6.60
2018-07-28T12:32:30.647Z,5.80
2018-07-28T12:34:59.128Z,6.03
2018-07-28T12:37:27.439Z,6.40
2018-07-28T12:39:55.829Z,6.50
2018-07-28T12:42:24.280Z,5.60
2018-07-28T12:44:52.782Z,6.07
2018-07-28T12:47:21.228Z,6.40
2018-07-28T12:49:49.626Z,6.20
2018-07-28T12:52:17.998Z,5.57
2018-07-28T12:54:46.405Z,5.50
2018-07-28T12:57:14.857Z,5.40
2018-07-28T12:59:43.465Z,6.00
2018-07-28T13:02:11.837Z,6.03
2018-07-28T13:04:40.255Z,5.70
2018-07-28T13:07:08.671Z,5.63
2018-07-28T13:09:37.048Z,6.03
2018-07-28T13:12:05.463Z,5.47
2018-07-28T13:14:33.854Z,6.90
2018-07-28T13:17:02.267Z,6.50
2018-07-28T13:19:30.653Z,6.13
2018-07-28T13:21:59.067Z,5.50
2018-07-28T13:24:27.433Z,5.90
2018-07-28T13:26:55.941Z,5.40
2018-07-28T13:29:24.402Z,6.47
2018-07-28T13:31:52.824Z,5.57
2018-07-28T13:34:21.195Z,5.97
2018-07-28T13:36:49.585Z,5.60
2018-07-28T13:39:17.962Z,5.73
2018-07-28T13:41:46.385Z,5.77
2018-07-28T13:44:14.753Z,5.90
2018-07-28T13:46:43.147Z,6.30
2018-07-28T13:49:11.523Z,5.53
2018-07-28T13:51:39.951Z,5.10
2018-07-28T13:54:08.329Z,6.10
2018-07-28T13:56:36.738Z,6.00
2018-07-28T13:59:05.498Z,5.97
2018-07-28T14:01:33.882Z,6.47
2018-07-28T14:04:02.253Z,6.03
2018-07-28T14:06:30.637Z,5.67
2018-07-28T14:08:59.395Z,6.60
2018-07-28T14:11:27.789Z,5.50
2018-07-28T14:13:56.154Z,5.93
2018-07-28T14:16:24.574Z,5.87
2018-07-28T14:18:52.999Z,5.83
2018-07-28T14:21:21.411Z,5.77
2018-07-28T14:23:49.785Z,5.33
2018-07-28T14:26:18.177Z,5.70
2018-07-28T14:28:46.537Z,5.40
2018-07-28T14:31:14.925Z,5.90
2018-07-28T14:33:43.295Z,6.03
2018-07-28T14:36:11.693Z,5.87
2018-07-28T14:38:40.066Z,7.33
2018-07-28T14:41:08.562Z,6.17
2018-07-28T14:43:36.929Z,6.00
2018-07-28T14:46:05.344Z,6.43
2018-07-28T14:48:33.718Z,5.33
2018-07-28T14:51:02.109Z,6.60
2018-07-28T14:53:30.527Z,6.40
2018-07-28T14:55:58.922Z,6.73
2018-07-28T14:58:27.299Z,6.60
2018-07-28T15:00:55.689Z,6.70
2018-07-28T15:03:24.061Z,6.10
2018-07-28T15:05:52.462Z,6.50
2018-07-28T15:08:20.898Z,6.40
2018-07-28T15:10:49.321Z,6.10
2018-07-28T15:13:17.785Z,5.83
2018-07-28T15:15:46.159Z,6.20
2018-07-28T15:18:14.557Z,6.77
2018-07-28T15:20:42.929Z,5.67
2018-07-28T15:23:11.337Z,5.00
2018-07-28T15:25:39.701Z,5.57
2018-07-28T15:28:08.095Z,4.87
2018-07-28T15:30:36.465Z,5.33
2018-07-28T15:33:04.876Z,5.40
2018-07-28T15:35:33.242Z,5.40
2018-07-28T15:38:01.633Z,5.60
2018-07-28T15:40:30.000Z,5.03
2018-07-28T15:42:58.431Z,4.90
2018-07-28T15:45:26.805Z,4.83
2018-07-28T15:47:55.233Z,4.50
2018-07-28T15:50:23.591Z,4.40
2018-07-28T15:52:51.991Z,5.40
2018-07-28T15:55:20.353Z,4.73
2018-07-28T15:57:48.743Z,4.80
2018-07-28T16:00:18.585Z,4.70
2018-07-28T16:02:47.761Z,4.07
2018-07-28T16:05:16.294Z,4.57
2018-07-28T16:07:44.687Z,4.20
2018-07-28T16:10:13.053Z,4.13
2018-07-28T16:12:41.450Z,5.20
2018-07-28T16:15:09.877Z,4.57
2018-07-28T16:17:38.267Z,4.10
2018-07-28T16:20:06.725Z,5.40
2018-07-28T16:22:35.166Z,5.27
2018-07-28T16:25:03.653Z,4.37
2018-07-28T16:27:32.085Z,4.33
2018-07-28T16:30:00.473Z,4.43
2018-07-28T16:32:28.865Z,4.60
2018-07-28T16:34:57.246Z,5.00
2018-07-28T16:37:25.645Z,4.73
2018-07-28T16:39:54.054Z,6.03
2018-07-28T16:42:22.441Z,5.77
2018-07-28T16:44:50.872Z,4.80
2018-07-28T16:47:19.256Z,4.93
2018-07-28T16:49:47.613Z,4.57
2018-07-28T16:52:16.046Z,4.80
2018-07-28T16:54:44.406Z,4.33
2018-07-28T16:57:12.793Z,4.23
2018-07-28T16:59:41.167Z,4.90
2018-07-28T17:02:09.724Z,4.70
2018-07-28T17:04:38.110Z,4.70
2018-07-28T17:07:06.576Z,4.13
2018-07-28T17:09:34.936Z,5.03
2018-07-28T17:12:03.333Z,5.17
2018-07-28T17:14:31.725Z,5.17
2018-07-28T17:17:00.085Z,5.20
2018-07-28T17:19:28.509Z,5.73
2018-07-28T17:21:56.906Z,8.67
2018-07-28T17:24:25.307Z,6.03
2018-07-28T17:26:53.699Z,5.77
2018-07-28T17:29:22.090Z,6.40
2018-07-28T17:31:50.469Z,6.50
2018-07-28T17:34:18.869Z,6.50
2018-07-28T17:36:47.252Z,5.57
2018-07-28T17:39:15.663Z,8.03
2018-07-28T17:41:44.062Z,15.87
2018-07-28T17:44:12.474Z,11.60
2018-07-28T17:46:40.907Z,9.70
2018-07-28T17:49:09.294Z,6.90
2018-07-28T17:51:37.676Z,7.60
2018-07-28T17:54:06.074Z,5.37
2018-07-28T17:56:34.653Z,6.33
2018-07-28T17:59:03.049Z,5.90
2018-07-28T18:01:31.475Z,6.00
2018-07-28T18:03:59.887Z,5.53
2018-07-28T18:06:28.254Z,6.70
2018-07-28T18:08:56.650Z,7.20
2018-07-28T18:11:25.021Z,6.57
2018-07-28T18:13:53.413Z,7.80
2018-07-28T18:16:22.003Z,7.90
2018-07-28T18:18:50.410Z,7.23
2018-07-28T18:21:18.811Z,7.50
2018-07-28T18:23:47.249Z,8.17
2018-07-28T18:26:15.610Z,6.30
2018-07-28T18:28:44.001Z,6.50
2018-07-28T18:31:12.387Z,7.17
2018-07-28T18:33:40.790Z,7.60
2018-07-28T18:36:09.164Z,7.60
2018-07-28T18:38:37.561Z,6.93
2018-07-28T18:41:05.943Z,6.70
2018-07-28T18:43:34.333Z,6.70
2018-07-28T18:46:02.706Z,8.03
2018-07-28T18:48:31.106Z,6.63
2018-07-28T18:50:59.483Z,6.23
2018-07-28T18:53:27.911Z,6.70
2018-07-28T18:55:56.292Z,6.83
2018-07-28T18:58:24.700Z,7.00
2018-07-28T19:00:53.094Z,6.47
2018-07-28T19:03:21.599Z,6.40
2018-07-28T19:05:50.093Z,6.23
2018-07-28T19:08:18.475Z,6.33
2018-07-28T19:10:46.909Z,7.13
2018-07-28T19:13:20.568Z,6.60
2018-07-28T19:15:48.966Z,7.70
2018-07-28T19:18:22.697Z,6.50
2018-07-28T19:20:51.247Z,6.90
2018-07-28T19:23:24.835Z,7.40
2018-07-28T19:25:53.266Z,7.80
2018-07-28T19:28:27.103Z,8.23
2018-07-28T19:30:55.593Z,6.53
2018-07-28T19:33:23.980Z,8.23
2018-07-28T19:35:57.800Z,7.80
2018-07-28T19:38:26.209Z,7.47
2018-07-28T19:40:54.610Z,7.00
2018-07-28T19:43:23.075Z,6.70
2018-07-28T19:45:51.495Z,6.60
2018-07-28T19:48:19.861Z,5.67
2018-07-28T19:50:48.250Z,6.10
2018-07-28T19:53:16.622Z,6.67
2018-07-28T19:55:45.039Z,8.53
2018-07-28T19:58:13.419Z,7.63
2018-07-28T20:00:41.905Z,9.43
2018-07-28T20:03:10.282Z,9.87
2018-07-28T20:05:38.678Z,9.90
2018-07-28T20:08:07.295Z,10.20
2018-07-28T20:10:35.695Z,11.30
2018-07-28T20:13:04.066Z,10.93
2018-07-28T20:15:32.539Z,8.10
2018-07-28T20:18:00.917Z,9.70
2018-07-28T20:20:29.336Z,10.10
2018-07-28T20:22:57.738Z,10.40
2018-07-28T20:25:26.142Z,10.50
2018-07-28T20:27:54.527Z,11.37
2018-07-28T20:30:22.921Z,10.80
2018-07-28T20:32:51.293Z,11.90
2018-07-28T20:35:19.698Z,11.50
2018-07-28T20:37:48.081Z,13.53
2018-07-28T20:40:16.534Z,12.00
2018-07-28T20:42:44.911Z,12.60
2018-07-28T20:45:13.323Z,10.10
2018-07-28T20:47:41.697Z,10.67
2018-07-28T20:50:10.104Z,12.50
2018-07-28T20:52:38.531Z,12.10
2018-07-28T20:55:06.934Z,12.10
2018-07-28T20:57:35.514Z,11.87
2018-07-28T21:00:04.103Z,12.33
2018-07-28T21:02:32.487Z,12.13
2018-07-28T21:05:00.902Z,11.80
2018-07-28T21:07:29.273Z,12.67
2018-07-28T21:09:57.656Z,14.10
2018-07-28T21:12:26.063Z,13.93
2018-07-28T21:14:54.587Z,12.43
2018-07-28T21:17:23.011Z,14.90
2018-07-28T21:19:51.394Z,11.83
2018-07-28T21:22:20.042Z,12.90
2018-07-28T21:24:48.419Z,14.13
2018-07-28T21:27:16.822Z,10.07
2018-07-28T21:29:45.227Z,10.80
2018-07-28T21:32:13.631Z,11.27
2018-07-28T21:34:42.012Z,12.40
2018-07-28T21:37:10.414Z,13.33
2018-07-28T21:39:38.791Z,11.57
2018-07-28T21:42:07.191Z,12.00
2018-07-28T21:44:35.575Z,13.13
2018-07-28T21:47:03.997Z,12.87
2018-07-28T21:49:32.373Z,13.47
2018-07-28T21:52:00.765Z,13.00
2018-07-28T21:54:29.146Z,14.70
2018-07-28T21:56:57.558Z,14.40
2018-07-28T21:59:25.956Z,14.70
2018-07-28T22:01:54.364Z,14.67
2018-07-28T22:04:25.638Z,13.40
2018-07-28T22:06:54.033Z,12.70
2018-07-28T22:09:22.415Z,11.90
2018-07-28T22:11:50.825Z,10.70
2018-07-28T22:14:19.216Z,11.40
2018-07-28T22:16:47.627Z,12.10
2018-07-28T22:19:16.015Z,12.30
2018-07-28T22:21:44.445Z,12.57
2018-07-28T22:24:12.848Z,12.00
2018-07-28T22:26:41.243Z,12.07
2018-07-28T22:29:09.614Z,12.73
2018-07-28T22:31:38.023Z,12.07
2018-07-28T22:34:06.833Z,12.27
2018-07-28T22:36:35.231Z,12.00
2018-07-28T22:39:03.671Z,12.77
2018-07-28T22:41:32.075Z,11.63
2018-07-28T22:44:00.458Z,10.73
2018-07-28T22:46:28.856Z,11.90
2018-07-28T22:48:57.234Z,11.03
2018-07-28T22:51:25.632Z,10.63
2018-07-28T22:53:54.001Z,11.53
2018-07-28T22:56:22.397Z,12.30
2018-07-28T22:58:50.771Z,11.27
2018-07-28T23:01:19.221Z,12.40
2018-07-28T23:03:47.607Z,12.60
2018-07-28T23:06:15.990Z,12.27
2018-07-28T23:08:44.493Z,14.30
2018-07-28T23:11:12.873Z,13.07
2018-07-28T23:13:41.283Z,13.27
2018-07-28T23:16:09.680Z,15.63
2018-07-28T23:18:38.078Z,14.60
2018-07-28T23:21:06.637Z,15.20
2018-07-28T23:23:35.035Z,13.33
2018-07-28T23:26:03.415Z,13.10
2018-07-28T23:28:31.818Z,14.50
2018-07-28T23:31:00.211Z,15.60
2018-07-28T23:33:28.619Z,12.93
2018-07-28T23:35:56.993Z,11.70
2018-07-28T23:38:25.396Z,11.77
2018-07-28T23:40:53.786Z,11.10
2018-07-28T23:43:22.204Z,12.20
2018-07-28T23:45:50.580Z,8.60
2018-07-28T23:48:19.068Z,8.53
2018-07-28T23:50:47.457Z,10.70
2018-07-28T23:53:15.858Z,9.47
2018-07-28T23:55:44.241Z,10.37
2018-07-28T23:58:12.638Z,9.90
